sensor_id;sensor_type;location;lat;lon;timestamp;pressure;altitude;pressure_sealevel;temperature;humidity
13734;BME280;43298;52.560;13.508;2022-07-29T00:00:08;101338.38;;;15.98;100.00
13734;BME280;43298;52.560;13.508;2022-07-29T00:02:35;101333.09;;;15.99;100.00
13734;BME280;43298;52.560;13.508;2022-07-29T00:05:01;101326.34;;;15.95;100.00
13734;BME280;43298;52.560;13.508;2022-07-29T00:07:27;101332.59;;;15.93;100.00
13734;BME280;43298;52.560;13.508;2022-07-29T00:09:53;101323.72;;;15.80;100.00
13734;BME280;43298;52.560;13.508;2022-07-29T00:12:24;101331.94;;;15.72;100.00
13734;BME280;43298;52.560;13.508;2022-07-29T00:14:51;101327.41;;;15.76;100.00
13734;BME280;43298;52.560;13.508;2022-07-29T00:17:17;101325.81;;;15.73;100.00
13734;BME280;43298;52.560;13.508;2022-07-29T00:19:42;101328.44;;;15.73;100.00
13734;BME280;43298;52.560;13.508;2022-07-29T00:22:08;101323.81;;;15.78;100.00
13734;BME280;43298;52.560;13.508;2022-07-29T00:24:34;101326.72;;;15.72;100.00
13734;BME280;43298;52.560;13.508;2022-07-29T00:27:00;101318.31;;;15.67;100.00
13734;BME280;43298;52.560;13.508;2022-07-29T00:29:25;101322.94;;;15.62;100.00
13734;BME280;43298;52.560;13.508;2022-07-29T00:31:51;101320.81;;;15.53;100.00
13734;BME280;43298;52.560;13.508;2022-07-29T00:34:17;101311.41;;;15.51;100.00
13734;BME280;43298;52.560;13.508;2022-07-29T00:37:01;101305.47;;;15.47;100.00
13734;BME280;43298;52.560;13.508;2022-07-29T00:39:27;101307.94;;;15.50;100.00
13734;BME280;43298;52.560;13.508;2022-07-29T00:41:52;101299.44;;;15.47;100.00
13734;BME280;43298;52.560;13.508;2022-07-29T00:44:18;101304.50;;;15.50;100.00
13734;BME280;43298;52.560;13.508;2022-07-29T00:46:44;101306.56;;;15.43;100.00
13734;BME280;43298;52.560;13.508;2022-07-29T00:49:10;101296.41;;;15.39;100.00
13734;BME280;43298;52.560;13.508;2022-07-29T00:51:37;101297.09;;;15.42;100.00
13734;BME280;43298;52.560;13.508;2022-07-29T00:54:04;101298.16;;;15.38;100.00
13734;BME280;43298;52.560;13.508;2022-07-29T00:56:31;101295.69;;;15.35;100.00
13734;BME280;43298;52.560;13.508;2022-07-29T00:58:59;101289.97;;;15.29;100.00
13734;BME280;43298;52.560;13.508;2022-07-29T01:01:25;101290.13;;;15.26;100.00
13734;BME280;43298;52.560;13.508;2022-07-29T01:03:51;101284.38;;;15.19;100.00
13734;BME280;43298;52.560;13.508;2022-07-29T01:06:18;101280.78;;;15.22;100.00
13734;BME280;43298;52.560;13.508;2022-07-29T01:08:46;101274.72;;;15.21;100.00
13734;BME280;43298;52.560;13.508;2022-07-29T01:11:13;101281.09;;;15.16;100.00
13734;BME280;43298;52.560;13.508;2022-07-29T01:13:40;101267.84;;;15.03;100.00
13734;BME280;43298;52.560;13.508;2022-07-29T01:16:20;101266.31;;;14.99;100.00
13734;BME280;43298;52.560;13.508;2022-07-29T01:18:51;101268.31;;;14.94;100.00
13734;BME280;43298;52.560;13.508;2022-07-29T01:29:59;101253.09;;;14.86;100.00
13734;BME280;43298;52.560;13.508;2022-07-29T01:32:33;101247.44;;;14.78;100.00
13734;BME280;43298;52.560;13.508;2022-07-29T01:35:17;101236.09;;;14.79;100.00
13734;BME280;43298;52.560;13.508;2022-07-29T01:37:52;101239.91;;;14.89;100.00
13734;BME280;43298;52.560;13.508;2022-07-29T01:40:51;101233.41;;;14.98;100.00
13734;BME280;43298;52.560;13.508;2022-07-29T01:43:23;101230.88;;;14.96;100.00
13734;BME280;43298;52.560;13.508;2022-07-29T01:46:00;101219.91;;;14.90;100.00
13734;BME280;43298;52.560;13.508;2022-07-29T01:51:24;101196.19;;;14.79;100.00
13734;BME280;43298;52.560;13.508;2022-07-29T01:54:13;101192.69;;;14.80;100.00
13734;BME280;43298;52.560;13.508;2022-07-29T01:56:40;101184.44;;;14.87;100.00
13734;BME280;43298;52.560;13.508;2022-07-29T01:59:09;101177.72;;;14.83;100.00
13734;BME280;43298;52.560;13.508;2022-07-29T02:01:36;101183.44;;;14.90;100.00
13734;BME280;43298;52.560;13.508;2022-07-29T02:04:05;101169.31;;;14.78;100.00
13734;BME280;43298;52.560;13.508;2022-07-29T02:06:33;101184.69;;;14.83;100.00
13734;BME280;43298;52.560;13.508;2022-07-29T02:09:02;101173.97;;;14.89;100.00
13734;BME280;43298;52.560;13.508;2022-07-29T02:11:31;101177.34;;;14.91;100.00
13734;BME280;43298;52.560;13.508;2022-07-29T02:14:00;101170.06;;;14.80;100.00
13734;BME280;43298;52.560;13.508;2022-07-29T02:16:28;101170.06;;;14.80;100.00
13734;BME280;43298;52.560;13.508;2022-07-29T02:18:57;101173.69;;;14.78;100.00
13734;BME280;43298;52.560;13.508;2022-07-29T02:21:27;101171.16;;;14.76;100.00
13734;BME280;43298;52.560;13.508;2022-07-29T02:23:56;101174.75;;;14.74;100.00
13734;BME280;43298;52.560;13.508;2022-07-29T02:26:26;101177.38;;;14.74;100.00
13734;BME280;43298;52.560;13.508;2022-07-29T02:28:57;101183.72;;;14.68;100.00
13734;BME280;43298;52.560;13.508;2022-07-29T02:31:29;101178.53;;;14.68;100.00
13734;BME280;43298;52.560;13.508;2022-07-29T02:33:56;101182.28;;;14.63;100.00
13734;BME280;43298;52.560;13.508;2022-07-29T02:36:23;101191.63;;;14.67;100.00
13734;BME280;43298;52.560;13.508;2022-07-29T02:38:51;101188.16;;;14.66;100.00
13734;BME280;43298;52.560;13.508;2022-07-29T02:41:37;101187.06;;;14.70;100.00
13734;BME280;43298;52.560;13.508;2022-07-29T02:44:14;101185.56;;;14.66;100.00
13734;BME280;43298;52.560;13.508;2022-07-29T02:47:20;101191.63;;;14.67;100.00
13734;BME280;43298;52.560;13.508;2022-07-29T02:50:11;101180.44;;;14.65;100.00
13734;BME280;43298;52.560;13.508;2022-07-29T02:53:01;101179.75;;;14.61;100.00
13734;BME280;43298;52.560;13.508;2022-07-29T02:55:40;101187.41;;;14.64;100.00
13734;BME280;43298;52.560;13.508;2022-07-29T02:58:28;101188.31;;;14.63;100.00
13734;BME280;43298;52.560;13.508;2022-07-29T03:00:58;101183.81;;;14.67;100.00
13734;BME280;43298;52.560;13.508;2022-07-29T03:03:35;101182.22;;;14.64;100.00
13734;BME280;43298;52.560;13.508;2022-07-29T03:06:03;101178.53;;;14.68;100.00
13734;BME280;43298;52.560;13.508;2022-07-29T03:08:32;101173.53;;;14.64;100.00
13734;BME280;43298;52.560;13.508;2022-07-29T03:10:58;101173.31;;;14.68;100.00
13734;BME280;43298;52.560;13.508;2022-07-29T03:13:27;101172.38;;;14.69;100.00
13734;BME280;43298;52.560;13.508;2022-07-29T03:15:55;101178.28;;;14.73;100.00
13734;BME280;43298;52.560;13.508;2022-07-29T03:18:23;101173.75;;;14.76;100.00
13734;BME280;43298;52.560;13.508;2022-07-29T03:20:49;101175.63;;;14.74;100.00
13734;BME280;43298;52.560;13.508;2022-07-29T03:23:20;101174.53;;;14.78;100.00
13734;BME280;43298;52.560;13.508;2022-07-29T03:25:49;101178.28;;;14.73;100.00
13734;BME280;43298;52.560;13.508;2022-07-29T03:28:15;101176.50;;;14.73;100.00
13734;BME280;43298;52.560;13.508;2022-07-29T03:30:40;101170.16;;;14.79;100.00
13734;BME280;43298;52.560;13.508;2022-07-29T03:33:06;101168.53;;;14.76;100.00
13734;BME280;43298;52.560;13.508;2022-07-29T03:35:32;101164.13;;;14.78;100.00
13734;BME280;43298;52.560;13.508;2022-07-29T03:37:58;101163.09;;;14.81;100.00
13734;BME280;43298;52.560;13.508;2022-07-29T03:40:54;101164.63;;;14.85;100.00
13734;BME280;43298;52.560;13.508;2022-07-29T03:43:22;101160.44;;;14.82;100.00
13734;BME280;43298;52.560;13.508;2022-07-29T03:45:53;101160.44;;;14.82;100.00
13734;BME280;43298;52.560;13.508;2022-07-29T03:48:22;101164.84;;;14.80;100.00
13734;BME280;43298;52.560;13.508;2022-07-29T03:50:50;101150.84;;;14.83;100.00
13734;BME280;43298;52.560;13.508;2022-07-29T03:53:16;101156.91;;;14.83;100.00
13734;BME280;43298;52.560;13.508;2022-07-29T03:55:50;101149.25;;;14.80;100.00
13734;BME280;43298;52.560;13.508;2022-07-29T03:58:18;101154.28;;;14.83;100.00
13734;BME280;43298;52.560;13.508;2022-07-29T04:00:45;101153.50;;;14.81;100.00
13734;BME280;43298;52.560;13.508;2022-07-29T04:03:12;101162.03;;;14.85;100.00
13734;BME280;43298;52.560;13.508;2022-07-29T04:05:38;101149.84;;;14.85;100.00
13734;BME280;43298;52.560;13.508;2022-07-29T04:08:05;101148.84;;;14.88;100.00
13734;BME280;43298;52.560;13.508;2022-07-29T04:10:31;101153.91;;;14.91;100.00
13734;BME280;43298;52.560;13.508;2022-07-29T04:12:57;101156.22;;;14.95;100.00
13734;BME280;43298;52.560;13.508;2022-07-29T04:15:23;101157.94;;;14.96;100.00
13734;BME280;43298;52.560;13.508;2022-07-29T04:17:49;101161.75;;;15.07;100.00
13734;BME280;43298;52.560;13.508;2022-07-29T04:20:15;101160.47;;;15.13;100.00
13734;BME280;43298;52.560;13.508;2022-07-29T04:22:41;101167.38;;;15.15;100.00
13734;BME280;43298;52.560;13.508;2022-07-29T04:25:07;101179.91;;;15.24;100.00
13734;BME280;43298;52.560;13.508;2022-07-29T04:27:33;101164.25;;;15.24;100.00
13734;BME280;43298;52.560;13.508;2022-07-29T04:29:59;101177.91;;;15.29;100.00
13734;BME280;43298;52.560;13.508;2022-07-29T04:32:25;101168.16;;;15.32;100.00
13734;BME280;43298;52.560;13.508;2022-07-29T04:34:52;101177.44;;;15.38;100.00
13734;BME280;43298;52.560;13.508;2022-07-29T04:37:18;101168.59;;;15.40;100.00
13734;BME280;43298;52.560;13.508;2022-07-29T04:39:44;101167.09;;;15.52;100.00
13734;BME280;43298;52.560;13.508;2022-07-29T04:42:10;101169.19;;;15.61;100.00
13734;BME280;43298;52.560;13.508;2022-07-29T04:44:35;101173.16;;;15.68;100.00
13734;BME280;43298;52.560;13.508;2022-07-29T04:47:01;101169.88;;;15.64;100.00
13734;BME280;43298;52.560;13.508;2022-07-29T04:49:27;101173.31;;;15.65;100.00
13734;BME280;43298;52.560;13.508;2022-07-29T04:51:53;101169.94;;;15.63;100.00
13734;BME280;43298;52.560;13.508;2022-07-29T04:54:19;101174.81;;;15.69;100.00
13734;BME280;43298;52.560;13.508;2022-07-29T04:56:44;101172.72;;;15.75;100.00
13734;BME280;43298;52.560;13.508;2022-07-29T04:59:11;101176.91;;;15.78;100.00
13734;BME280;43298;52.560;13.508;2022-07-29T05:01:37;101178.34;;;15.83;100.00
13734;BME280;43298;52.560;13.508;2022-07-29T05:04:03;101179.50;;;15.78;100.00
13734;BME280;43298;52.560;13.508;2022-07-29T05:06:29;101182.72;;;15.83;100.00
13734;BME280;43298;52.560;13.508;2022-07-29T05:08:55;101181.44;;;15.90;100.00
13734;BME280;43298;52.560;13.508;2022-07-29T05:11:20;101182.19;;;15.92;100.00
13734;BME280;43298;52.560;13.508;2022-07-29T05:13:46;101178.13;;;16.02;100.00
13734;BME280;43298;52.560;13.508;2022-07-29T05:16:13;101181.75;;;16.15;100.00
13734;BME280;43298;52.560;13.508;2022-07-29T05:18:38;101184.88;;;16.35;100.00
13734;BME280;43298;52.560;13.508;2022-07-29T05:21:04;101187.91;;;16.43;100.00
13734;BME280;43298;52.560;13.508;2022-07-29T05:23:30;101183.56;;;16.58;100.00
13734;BME280;43298;52.560;13.508;2022-07-29T05:25:56;101187.50;;;16.79;100.00
13734;BME280;43298;52.560;13.508;2022-07-29T05:28:22;101191.25;;;16.89;100.00
13734;BME280;43298;52.560;13.508;2022-07-29T05:30:47;101179.69;;;17.07;100.00
13734;BME280;43298;52.560;13.508;2022-07-29T05:33:14;101188.44;;;17.20;100.00
13734;BME280;43298;52.560;13.508;2022-07-29T05:35:40;101188.91;;;17.26;100.00
13734;BME280;43298;52.560;13.508;2022-07-29T05:38:06;101182.56;;;17.30;100.00
13734;BME280;43298;52.560;13.508;2022-07-29T05:40:32;101180.88;;;17.29;100.00
13734;BME280;43298;52.560;13.508;2022-07-29T05:42:59;101183.03;;;17.23;100.00
13734;BME280;43298;52.560;13.508;2022-07-29T05:45:25;101175.75;;;17.14;100.00
13734;BME280;43298;52.560;13.508;2022-07-29T05:47:51;101177.97;;;17.20;100.00
13734;BME280;43298;52.560;13.508;2022-07-29T05:50:17;101179.00;;;17.17;100.00
13734;BME280;43298;52.560;13.508;2022-07-29T05:52:42;101176.66;;;17.27;100.00
13734;BME280;43298;52.560;13.508;2022-07-29T05:55:08;101183.69;;;17.26;100.00
13734;BME280;43298;52.560;13.508;2022-07-29T05:57:34;101186.41;;;17.25;100.00
13734;BME280;43298;52.560;13.508;2022-07-29T06:00:00;101193.47;;;17.37;100.00
13734;BME280;43298;52.560;13.508;2022-07-29T06:02:26;101180.06;;;17.43;100.00
13734;BME280;43298;52.560;13.508;2022-07-29T06:04:52;101179.44;;;17.52;100.00
13734;BME280;43298;52.560;13.508;2022-07-29T06:07:17;101188.97;;;17.67;100.00
13734;BME280;43298;52.560;13.508;2022-07-29T06:09:43;101196.78;;;17.81;100.00
13734;BME280;43298;52.560;13.508;2022-07-29T06:12:09;101197.97;;;18.02;100.00
13734;BME280;43298;52.560;13.508;2022-07-29T06:14:35;101210.34;;;18.27;100.00
13734;BME280;43298;52.560;13.508;2022-07-29T06:17:04;101209.09;;;18.32;100.00
13734;BME280;43298;52.560;13.508;2022-07-29T06:19:30;101214.00;;;18.51;100.00
13734;BME280;43298;52.560;13.508;2022-07-29T06:21:56;101219.53;;;18.59;100.00
13734;BME280;43298;52.560;13.508;2022-07-29T06:24:21;101215.69;;;18.64;100.00
13734;BME280;43298;52.560;13.508;2022-07-29T06:26:47;101212.13;;;18.78;100.00
13734;BME280;43298;52.560;13.508;2022-07-29T06:29:13;101217.56;;;19.00;100.00
13734;BME280;43298;52.560;13.508;2022-07-29T06:31:39;101210.19;;;19.55;100.00
13734;BME280;43298;52.560;13.508;2022-07-29T06:34:05;101210.16;;;19.67;100.00
13734;BME280;43298;52.560;13.508;2022-07-29T06:36:34;101212.38;;;20.20;100.00
13734;BME280;43298;52.560;13.508;2022-07-29T06:39:00;101212.94;;;20.00;100.00
13734;BME280;43298;52.560;13.508;2022-07-29T06:41:25;101214.69;;;19.89;100.00
13734;BME280;43298;52.560;13.508;2022-07-29T06:43:51;101214.72;;;19.76;100.00
13734;BME280;43298;52.560;13.508;2022-07-29T06:46:18;101211.22;;;19.88;100.00
13734;BME280;43298;52.560;13.508;2022-07-29T06:48:45;101216.38;;;19.90;100.00
13734;BME280;43298;52.560;13.508;2022-07-29T06:51:11;101213.63;;;19.91;100.00
13734;BME280;43298;52.560;13.508;2022-07-29T06:53:38;101214.41;;;20.04;100.00
13734;BME280;43298;52.560;13.508;2022-07-29T06:56:06;101223.84;;;20.07;100.00
13734;BME280;43298;52.560;13.508;2022-07-29T06:58:34;101225.13;;;20.01;100.00
13734;BME280;43298;52.560;13.508;2022-07-29T07:01:03;101220.56;;;19.92;100.00
13734;BME280;43298;52.560;13.508;2022-07-29T07:03:30;101226.72;;;20.04;100.00
13734;BME280;43298;52.560;13.508;2022-07-29T07:05:56;101230.28;;;20.26;100.00
13734;BME280;43298;52.560;13.508;2022-07-29T07:08:23;101233.47;;;20.42;100.00
13734;BME280;43298;52.560;13.508;2022-07-29T07:10:50;101236.03;;;20.55;100.00
13734;BME280;43298;52.560;13.508;2022-07-29T07:13:16;101232.66;;;20.88;100.00
13734;BME280;43298;52.560;13.508;2022-07-29T07:15:45;101243.50;;;20.83;100.00
13734;BME280;43298;52.560;13.508;2022-07-29T07:18:14;101243.25;;;20.75;100.00
13734;BME280;43298;52.560;13.508;2022-07-29T07:20:41;101247.50;;;21.00;100.00
13734;BME280;43298;52.560;13.508;2022-07-29T07:23:07;101244.63;;;21.58;100.00
13734;BME280;43298;52.560;13.508;2022-07-29T07:25:33;101248.75;;;22.15;100.00
13734;BME280;43298;52.560;13.508;2022-07-29T07:27:59;101257.78;;;22.85;100.00
13734;BME280;43298;52.560;13.508;2022-07-29T07:30:26;101255.22;;;22.95;100.00
13734;BME280;43298;52.560;13.508;2022-07-29T07:32:53;101255.28;;;22.84;100.00
13734;BME280;43298;52.560;13.508;2022-07-29T07:35:19;101257.41;;;22.38;100.00
13734;BME280;43298;52.560;13.508;2022-07-29T07:37:45;101250.78;;;22.43;100.00
13734;BME280;43298;52.560;13.508;2022-07-29T07:40:11;101249.16;;;22.63;100.00
13734;BME280;43298;52.560;13.508;2022-07-29T07:42:40;101248.38;;;22.51;100.00
13734;BME280;43298;52.560;13.508;2022-07-29T07:45:08;101247.09;;;23.07;100.00
13734;BME280;43298;52.560;13.508;2022-07-29T07:47:36;101240.97;;;23.77;100.00
13734;BME280;43298;52.560;13.508;2022-07-29T07:50:08;101252.00;;;23.82;100.00
13734;BME280;43298;52.560;13.508;2022-07-29T07:52:47;101244.31;;;24.28;100.00
13734;BME280;43298;52.560;13.508;2022-07-29T07:55:13;101239.69;;;24.77;97.93
13734;BME280;43298;52.560;13.508;2022-07-29T07:57:38;101233.28;;;24.51;96.23
13734;BME280;43298;52.560;13.508;2022-07-29T08:00:05;101241.94;;;24.72;94.84
13734;BME280;43298;52.560;13.508;2022-07-29T08:02:32;101239.94;;;24.93;94.99
13734;BME280;43298;52.560;13.508;2022-07-29T08:04:57;101241.38;;;24.69;95.36
13734;BME280;43298;52.560;13.508;2022-07-29T08:07:25;101235.50;;;24.75;91.58
13734;BME280;43298;52.560;13.508;2022-07-29T08:09:50;101242.47;;;24.47;95.61
13734;BME280;43298;52.560;13.508;2022-07-29T08:12:16;101231.56;;;24.88;88.35
13734;BME280;43298;52.560;13.508;2022-07-29T08:14:42;101237.50;;;25.55;84.63
13734;BME280;43298;52.560;13.508;2022-07-29T08:17:08;101236.13;;;25.51;80.72
13734;BME280;43298;52.560;13.508;2022-07-29T08:19:33;101239.16;;;25.56;81.43
13734;BME280;43298;52.560;13.508;2022-07-29T08:21:59;101227.53;;;25.67;77.80
13734;BME280;43298;52.560;13.508;2022-07-29T08:24:25;101226.50;;;25.95;75.45
13734;BME280;43298;52.560;13.508;2022-07-29T08:27:10;101225.09;;;26.36;73.07
13734;BME280;43298;52.560;13.508;2022-07-29T08:29:38;101223.72;;;26.49;74.00
13734;BME280;43298;52.560;13.508;2022-07-29T08:32:04;101228.19;;;26.14;72.57
13734;BME280;43298;52.560;13.508;2022-07-29T08:34:30;101232.06;;;26.19;73.20
13734;BME280;43298;52.560;13.508;2022-07-29T08:36:56;101228.81;;;26.60;70.69
13734;BME280;43298;52.560;13.508;2022-07-29T08:39:23;101227.34;;;26.48;70.84
13734;BME280;43298;52.560;13.508;2022-07-29T08:41:49;101225.75;;;26.55;70.01
13734;BME280;43298;52.560;13.508;2022-07-29T08:44:18;101226.06;;;26.35;70.57
13734;BME280;43298;52.560;13.508;2022-07-29T08:46:44;101219.72;;;26.28;70.21
13734;BME280;43298;52.560;13.508;2022-07-29T08:49:10;101217.22;;;26.87;70.25
13734;BME280;43298;52.560;13.508;2022-07-29T08:51:39;101219.06;;;27.20;69.61
13734;BME280;43298;52.560;13.508;2022-07-29T08:54:06;101211.50;;;26.74;67.45
13734;BME280;43298;52.560;13.508;2022-07-29T08:56:33;101215.31;;;26.97;67.16
13734;BME280;43298;52.560;13.508;2022-07-29T08:59:04;101214.03;;;27.09;65.24
13734;BME280;43298;52.560;13.508;2022-07-29T09:01:33;101217.25;;;27.54;65.65
13734;BME280;43298;52.560;13.508;2022-07-29T09:04:02;101209.44;;;27.52;66.77
13734;BME280;43298;52.560;13.508;2022-07-29T09:06:34;101213.75;;;27.20;65.34
13734;BME280;43298;52.560;13.508;2022-07-29T09:09:00;101209.91;;;26.89;67.17
13734;BME280;43298;52.560;13.508;2022-07-29T09:11:26;101204.72;;;26.19;67.89
13734;BME280;43298;52.560;13.508;2022-07-29T09:13:53;101210.56;;;26.22;67.27
13734;BME280;43298;52.560;13.508;2022-07-29T09:16:18;101215.72;;;26.06;67.55
13734;BME280;43298;52.560;13.508;2022-07-29T09:18:46;101214.50;;;26.18;66.25
13734;BME280;43298;52.560;13.508;2022-07-29T09:21:15;101209.91;;;26.46;65.83
13734;BME280;43298;52.560;13.508;2022-07-29T09:24:13;101212.75;;;27.21;66.18
13734;BME280;43298;52.560;13.508;2022-07-29T09:26:44;101212.41;;;26.90;63.88
13734;BME280;43298;52.560;13.508;2022-07-29T09:29:16;101210.81;;;27.72;61.75
13734;BME280;43298;52.560;13.508;2022-07-29T09:31:48;101207.25;;;27.97;60.26
13734;BME280;43298;52.560;13.508;2022-07-29T09:34:20;101204.09;;;27.86;63.15
13734;BME280;43298;52.560;13.508;2022-07-29T09:36:49;101203.09;;;27.12;60.78
13734;BME280;43298;52.560;13.508;2022-07-29T09:39:26;101204.63;;;26.63;64.90
13734;BME280;43298;52.560;13.508;2022-07-29T09:41:54;101209.41;;;26.60;65.17
13734;BME280;43298;52.560;13.508;2022-07-29T09:44:24;101212.06;;;26.85;65.91
13734;BME280;43298;52.560;13.508;2022-07-29T09:47:04;101218.72;;;26.64;64.23
13734;BME280;43298;52.560;13.508;2022-07-29T09:49:35;101207.81;;;26.49;64.12
13734;BME280;43298;52.560;13.508;2022-07-29T09:52:08;101199.19;;;26.12;63.15
13734;BME280;43298;52.560;13.508;2022-07-29T09:54:35;101203.81;;;26.28;61.81
13734;BME280;43298;52.560;13.508;2022-07-29T09:57:08;101193.97;;;26.20;64.01
13734;BME280;43298;52.560;13.508;2022-07-29T09:59:38;101197.69;;;26.53;62.97
13734;BME280;43298;52.560;13.508;2022-07-29T10:02:14;101201.97;;;26.46;61.88
13734;BME280;43298;52.560;13.508;2022-07-29T10:04:41;101203.47;;;26.66;62.58
13734;BME280;43298;52.560;13.508;2022-07-29T10:07:07;101198.78;;;26.85;62.76
13734;BME280;43298;52.560;13.508;2022-07-29T10:09:34;101200.75;;;26.83;60.98
13734;BME280;43298;52.560;13.508;2022-07-29T10:12:05;101199.09;;;27.08;57.87
13734;BME280;43298;52.560;13.508;2022-07-29T10:14:32;101187.31;;;27.36;58.41
13734;BME280;43298;52.560;13.508;2022-07-29T10:17:03;101191.94;;;27.83;55.97
13734;BME280;43298;52.560;13.508;2022-07-29T10:19:30;101181.81;;;28.35;53.95
13734;BME280;43298;52.560;13.508;2022-07-29T10:21:58;101185.31;;;27.95;53.84
13734;BME280;43298;52.560;13.508;2022-07-29T10:24:29;101181.28;;;27.83;52.00
13734;BME280;43298;52.560;13.508;2022-07-29T10:26:57;101187.13;;;28.03;51.55
13734;BME280;43298;52.560;13.508;2022-07-29T10:29:24;101171.28;;;27.77;47.60
13734;BME280;43298;52.560;13.508;2022-07-29T10:32:10;101190.59;;;27.04;49.40
13734;BME280;43298;52.560;13.508;2022-07-29T10:38:26;101181.16;;;28.09;51.25
13734;BME280;43298;52.560;13.508;2022-07-29T10:44:13;101178.41;;;29.13;48.66
13734;BME280;43298;52.560;13.508;2022-07-29T10:46:41;101174.19;;;28.24;51.33
13734;BME280;43298;52.560;13.508;2022-07-29T10:49:13;101170.00;;;28.29;51.60
13734;BME280;43298;52.560;13.508;2022-07-29T10:52:08;101167.56;;;28.44;51.90
13734;BME280;43298;52.560;13.508;2022-07-29T10:54:47;101169.22;;;28.45;52.67
13734;BME280;43298;52.560;13.508;2022-07-29T11:05:18;101168.34;;;30.52;46.17
13734;BME280;43298;52.560;13.508;2022-07-29T11:08:19;101163.59;;;31.05;43.80
13734;BME280;43298;52.560;13.508;2022-07-29T11:13:45;101155.94;;;29.46;47.05
13734;BME280;43298;52.560;13.508;2022-07-29T11:16:12;101157.25;;;29.50;46.67
13734;BME280;43298;52.560;13.508;2022-07-29T11:19:23;101161.22;;;29.85;46.46
13734;BME280;43298;52.560;13.508;2022-07-29T11:21:49;101154.94;;;29.47;46.85
13734;BME280;43298;52.560;13.508;2022-07-29T11:24:27;101155.16;;;29.38;49.41
13734;BME280;43298;52.560;13.508;2022-07-29T11:27:30;101149.28;;;28.96;51.12
13734;BME280;43298;52.560;13.508;2022-07-29T11:29:58;101153.44;;;29.45;51.17
13734;BME280;43298;52.560;13.508;2022-07-29T11:32:38;101152.25;;;28.54;54.70
13734;BME280;43298;52.560;13.508;2022-07-29T11:35:19;101152.69;;;28.74;55.09
13734;BME280;43298;52.560;13.508;2022-07-29T11:41:26;101156.88;;;28.28;56.30
13734;BME280;43298;52.560;13.508;2022-07-29T11:44:00;101158.22;;;28.56;58.73
13734;BME280;43298;52.560;13.508;2022-07-29T11:46:49;101156.50;;;28.79;54.22
13734;BME280;43298;52.560;13.508;2022-07-29T11:49:26;101150.31;;;28.87;54.91
13734;BME280;43298;52.560;13.508;2022-07-29T11:51:53;101147.19;;;28.67;56.30
13734;BME280;43298;52.560;13.508;2022-07-29T11:54:32;101153.69;;;29.27;57.16
13734;BME280;43298;52.560;13.508;2022-07-29T11:56:59;101158.13;;;30.55;52.81
13734;BME280;43298;52.560;13.508;2022-07-29T11:59:25;101145.72;;;30.91;52.35
13734;BME280;43298;52.560;13.508;2022-07-29T12:01:55;101145.28;;;31.02;51.90
13734;BME280;43298;52.560;13.508;2022-07-29T12:04:21;101138.38;;;30.79;52.43
13734;BME280;43298;52.560;13.508;2022-07-29T12:06:53;101138.84;;;30.82;51.31
13734;BME280;43298;52.560;13.508;2022-07-29T12:09:20;101134.69;;;30.80;52.56
13734;BME280;43298;52.560;13.508;2022-07-29T12:11:46;101129.63;;;30.99;53.28
13734;BME280;43298;52.560;13.508;2022-07-29T12:14:29;101130.41;;;29.82;57.29
13734;BME280;43298;52.560;13.508;2022-07-29T12:16:56;101139.63;;;30.68;56.89
13734;BME280;43298;52.560;13.508;2022-07-29T12:19:22;101133.03;;;30.93;53.21
13734;BME280;43298;52.560;13.508;2022-07-29T12:21:51;101122.72;;;30.90;53.83
13734;BME280;43298;52.560;13.508;2022-07-29T12:24:18;101121.16;;;31.46;53.90
13734;BME280;43298;52.560;13.508;2022-07-29T12:26:51;101111.91;;;30.98;53.18
13734;BME280;43298;52.560;13.508;2022-07-29T12:29:18;101119.00;;;31.06;51.33
13734;BME280;43298;52.560;13.508;2022-07-29T12:31:45;101117.25;;;30.98;54.27
13734;BME280;43298;52.560;13.508;2022-07-29T12:34:13;101103.66;;;31.44;52.70
13734;BME280;43298;52.560;13.508;2022-07-29T12:36:43;101100.84;;;31.73;51.66
13734;BME280;43298;52.560;13.508;2022-07-29T12:39:10;101115.31;;;31.57;55.43
13734;BME280;43298;52.560;13.508;2022-07-29T12:41:37;101110.34;;;31.33;54.66
13734;BME280;43298;52.560;13.508;2022-07-29T12:44:04;101102.69;;;32.14;50.54
13734;BME280;43298;52.560;13.508;2022-07-29T12:46:30;101094.59;;;32.08;47.75
13734;BME280;43298;52.560;13.508;2022-07-29T12:48:55;101096.25;;;32.09;50.05
13734;BME280;43298;52.560;13.508;2022-07-29T12:51:34;101108.75;;;32.02;51.85
13734;BME280;43298;52.560;13.508;2022-07-29T12:54:15;101097.81;;;31.97;52.90
13734;BME280;43298;52.560;13.508;2022-07-29T12:56:42;101101.41;;;30.68;54.85
13734;BME280;43298;52.560;13.508;2022-07-29T12:59:20;101091.94;;;30.14;58.99
13734;BME280;43298;52.560;13.508;2022-07-29T13:01:49;101085.19;;;29.36;60.56
13734;BME280;43298;52.560;13.508;2022-07-29T13:04:26;101093.53;;;28.94;62.88
13734;BME280;43298;52.560;13.508;2022-07-29T13:07:06;101092.03;;;29.61;61.15
13734;BME280;43298;52.560;13.508;2022-07-29T13:09:44;101088.97;;;30.46;58.07
13734;BME280;43298;52.560;13.508;2022-07-29T13:12:13;101086.69;;;30.57;57.95
13734;BME280;43298;52.560;13.508;2022-07-29T13:14:45;101082.41;;;30.19;59.24
13734;BME280;43298;52.560;13.508;2022-07-29T13:20:03;101060.19;;;29.06;60.89